sensor_id;sensor_type;location;lat;lon;timestamp;temperature;humidity
33271;DHT22;53180;51.344;6.152;2023-04-07T00:00:14;8.70;95.40
33271;DHT22;53180;51.344;6.152;2023-04-07T00:02:43;8.70;95.40
33271;DHT22;53180;51.344;6.152;2023-04-07T00:05:12;8.70;95.40
33271;DHT22;53180;51.344;6.152;2023-04-07T00:07:42;8.70;95.40
33271;DHT22;53180;51.344;6.152;2023-04-07T00:10:23;8.70;95.50
33271;DHT22;53180;51.344;6.152;2023-04-07T00:12:51;8.70;95.50
33271;DHT22;53180;51.344;6.152;2023-04-07T00:15:19;8.70;95.50
33271;DHT22;53180;51.344;6.152;2023-04-07T00:17:48;8.70;95.50
33271;DHT22;53180;51.344;6.152;2023-04-07T00:20:16;8.70;95.50
33271;DHT22;53180;51.344;6.152;2023-04-07T00:22:47;8.70;95.50
33271;DHT22;53180;51.344;6.152;2023-04-07T00:25:15;8.70;95.50
33271;DHT22;53180;51.344;6.152;2023-04-07T00:27:43;8.70;95.50
33271;DHT22;53180;51.344;6.152;2023-04-07T00:30:12;8.70;95.50
33271;DHT22;53180;51.344;6.152;2023-04-07T00:32:41;8.70;95.50
33271;DHT22;53180;51.344;6.152;2023-04-07T00:35:11;8.70;95.50
33271;DHT22;53180;51.344;6.152;2023-04-07T00:37:39;8.70;95.50
33271;DHT22;53180;51.344;6.152;2023-04-07T00:40:09;8.70;95.50
33271;DHT22;53180;51.344;6.152;2023-04-07T00:42:38;8.70;95.50
33271;DHT22;53180;51.344;6.152;2023-04-07T00:45:07;8.70;95.50
33271;DHT22;53180;51.344;6.152;2023-04-07T00:47:37;8.70;95.50
33271;DHT22;53180;51.344;6.152;2023-04-07T00:50:06;8.70;95.50
33271;DHT22;53180;51.344;6.152;2023-04-07T00:52:35;8.70;95.60
33271;DHT22;53180;51.344;6.152;2023-04-07T00:55:04;8.70;95.60
33271;DHT22;53180;51.344;6.152;2023-04-07T00:57:34;8.70;95.50
33271;DHT22;53180;51.344;6.152;2023-04-07T01:00:04;8.70;95.60
33271;DHT22;53180;51.344;6.152;2023-04-07T01:02:38;8.70;95.60
33271;DHT22;53180;51.344;6.152;2023-04-07T01:05:15;8.70;95.60
33271;DHT22;53180;51.344;6.152;2023-04-07T01:07:51;8.70;95.60
33271;DHT22;53180;51.344;6.152;2023-04-07T01:10:27;8.70;95.60
33271;DHT22;53180;51.344;6.152;2023-04-07T01:13:07;8.60;95.60
33271;DHT22;53180;51.344;6.152;2023-04-07T01:15:38;8.60;95.60
33271;DHT22;53180;51.344;6.152;2023-04-07T01:18:11;8.60;95.60
33271;DHT22;53180;51.344;6.152;2023-04-07T01:20:42;8.60;95.60
33271;DHT22;53180;51.344;6.152;2023-04-07T01:23:20;8.60;95.60
33271;DHT22;53180;51.344;6.152;2023-04-07T01:26:06;8.60;95.60
33271;DHT22;53180;51.344;6.152;2023-04-07T01:29:03;8.60;95.60
33271;DHT22;53180;51.344;6.152;2023-04-07T01:31:54;8.50;95.60
33271;DHT22;53180;51.344;6.152;2023-04-07T01:34:22;8.60;95.60
33271;DHT22;53180;51.344;6.152;2023-04-07T01:36:53;8.50;95.60
33271;DHT22;53180;51.344;6.152;2023-04-07T01:39:22;8.50;95.60
33271;DHT22;53180;51.344;6.152;2023-04-07T01:41:52;8.50;95.60
33271;DHT22;53180;51.344;6.152;2023-04-07T01:44:21;8.50;95.60
33271;DHT22;53180;51.344;6.152;2023-04-07T01:46:52;8.50;95.60
33271;DHT22;53180;51.344;6.152;2023-04-07T01:49:21;8.40;95.60
33271;DHT22;53180;51.344;6.152;2023-04-07T01:51:51;8.50;95.60
33271;DHT22;53180;51.344;6.152;2023-04-07T01:54:19;8.50;95.60
33271;DHT22;53180;51.344;6.152;2023-04-07T01:56:48;8.50;95.60
33271;DHT22;53180;51.344;6.152;2023-04-07T01:59:16;8.50;95.60
33271;DHT22;53180;51.344;6.152;2023-04-07T02:01:45;8.50;95.60
33271;DHT22;53180;51.344;6.152;2023-04-07T02:04:21;8.50;95.60
33271;DHT22;53180;51.344;6.152;2023-04-07T02:06:58;8.40;95.60
33271;DHT22;53180;51.344;6.152;2023-04-07T02:09:30;8.40;95.60
33271;DHT22;53180;51.344;6.152;2023-04-07T02:12:01;8.40;95.60
33271;DHT22;53180;51.344;6.152;2023-04-07T02:14:32;8.40;95.60
33271;DHT22;53180;51.344;6.152;2023-04-07T02:17:00;8.30;95.60
33271;DHT22;53180;51.344;6.152;2023-04-07T02:19:31;8.30;95.60
33271;DHT22;53180;51.344;6.152;2023-04-07T02:22:02;8.30;95.60
33271;DHT22;53180;51.344;6.152;2023-04-07T02:24:30;8.30;95.60
33271;DHT22;53180;51.344;6.152;2023-04-07T02:26:59;8.20;95.60
33271;DHT22;53180;51.344;6.152;2023-04-07T02:29:28;8.20;95.60
33271;DHT22;53180;51.344;6.152;2023-04-07T02:31:56;8.10;95.60
33271;DHT22;53180;51.344;6.152;2023-04-07T02:34:24;8.10;95.50
33271;DHT22;53180;51.344;6.152;2023-04-07T02:36:54;8.10;95.50
33271;DHT22;53180;51.344;6.152;2023-04-07T02:39:22;8.10;95.50
33271;DHT22;53180;51.344;6.152;2023-04-07T02:41:50;8.00;95.50
33271;DHT22;53180;51.344;6.152;2023-04-07T02:44:18;8.00;95.50
33271;DHT22;53180;51.344;6.152;2023-04-07T02:46:47;8.00;95.40
33271;DHT22;53180;51.344;6.152;2023-04-07T02:49:15;7.90;95.50
33271;DHT22;53180;51.344;6.152;2023-04-07T02:51:43;7.90;95.40
33271;DHT22;53180;51.344;6.152;2023-04-07T02:54:14;7.80;95.40
33271;DHT22;53180;51.344;6.152;2023-04-07T02:56:42;7.80;95.30
33271;DHT22;53180;51.344;6.152;2023-04-07T02:59:10;7.80;95.40
33271;DHT22;53180;51.344;6.152;2023-04-07T03:01:38;7.80;95.30
33271;DHT22;53180;51.344;6.152;2023-04-07T03:04:07;7.70;95.30
33271;DHT22;53180;51.344;6.152;2023-04-07T03:06:35;7.80;95.30
33271;DHT22;53180;51.344;6.152;2023-04-07T03:09:03;7.80;95.30
33271;DHT22;53180;51.344;6.152;2023-04-07T03:11:33;7.80;95.40
33271;DHT22;53180;51.344;6.152;2023-04-07T03:14:02;7.80;95.40
33271;DHT22;53180;51.344;6.152;2023-04-07T03:16:30;7.80;95.40
33271;DHT22;53180;51.344;6.152;2023-04-07T03:18:58;7.80;95.40
33271;DHT22;53180;51.344;6.152;2023-04-07T03:21:26;7.90;95.40
33271;DHT22;53180;51.344;6.152;2023-04-07T03:23:55;7.80;95.40
33271;DHT22;53180;51.344;6.152;2023-04-07T03:26:23;7.80;95.40
33271;DHT22;53180;51.344;6.152;2023-04-07T03:28:53;7.80;95.50
33271;DHT22;53180;51.344;6.152;2023-04-07T03:31:21;7.80;95.50
33271;DHT22;53180;51.344;6.152;2023-04-07T03:33:49;7.80;95.50
33271;DHT22;53180;51.344;6.152;2023-04-07T03:36:18;7.80;95.50
33271;DHT22;53180;51.344;6.152;2023-04-07T03:38:47;7.80;95.50
33271;DHT22;53180;51.344;6.152;2023-04-07T03:41:15;7.80;95.50
33271;DHT22;53180;51.344;6.152;2023-04-07T03:43:43;7.70;95.40
33271;DHT22;53180;51.344;6.152;2023-04-07T03:46:13;7.70;95.40
33271;DHT22;53180;51.344;6.152;2023-04-07T03:48:42;7.70;95.40
33271;DHT22;53180;51.344;6.152;2023-04-07T03:51:10;7.70;95.40
33271;DHT22;53180;51.344;6.152;2023-04-07T03:53:38;7.70;95.40
33271;DHT22;53180;51.344;6.152;2023-04-07T03:56:07;7.60;95.40
33271;DHT22;53180;51.344;6.152;2023-04-07T03:58:35;7.60;95.40
33271;DHT22;53180;51.344;6.152;2023-04-07T04:01:03;7.60;95.40
33271;DHT22;53180;51.344;6.152;2023-04-07T04:03:33;7.60;95.40
33271;DHT22;53180;51.344;6.152;2023-04-07T04:06:02;7.60;95.40
33271;DHT22;53180;51.344;6.152;2023-04-07T04:08:31;7.60;95.40
33271;DHT22;53180;51.344;6.152;2023-04-07T04:10:59;7.60;95.40
33271;DHT22;53180;51.344;6.152;2023-04-07T04:13:27;7.60;95.40
33271;DHT22;53180;51.344;6.152;2023-04-07T04:15:56;7.70;95.50
33271;DHT22;53180;51.344;6.152;2023-04-07T04:18:24;7.70;95.40
33271;DHT22;53180;51.344;6.152;2023-04-07T04:20:54;7.70;95.40
33271;DHT22;53180;51.344;6.152;2023-04-07T04:23:22;7.70;95.50
33271;DHT22;53180;51.344;6.152;2023-04-07T04:25:51;7.70;95.50
33271;DHT22;53180;51.344;6.152;2023-04-07T04:28:19;7.70;95.50
33271;DHT22;53180;51.344;6.152;2023-04-07T04:30:47;7.70;95.50
33271;DHT22;53180;51.344;6.152;2023-04-07T04:33:15;7.60;95.50
33271;DHT22;53180;51.344;6.152;2023-04-07T04:35:44;7.60;95.50
33271;DHT22;53180;51.344;6.152;2023-04-07T04:38:15;7.70;95.50
33271;DHT22;53180;51.344;6.152;2023-04-07T04:40:43;7.70;95.50
33271;DHT22;53180;51.344;6.152;2023-04-07T04:43:11;7.60;95.50
33271;DHT22;53180;51.344;6.152;2023-04-07T04:45:40;7.60;95.50
33271;DHT22;53180;51.344;6.152;2023-04-07T04:48:08;7.60;95.50
33271;DHT22;53180;51.344;6.152;2023-04-07T04:50:36;7.60;95.50
33271;DHT22;53180;51.344;6.152;2023-04-07T04:53:05;7.70;95.50
33271;DHT22;53180;51.344;6.152;2023-04-07T04:55:34;7.70;95.50
33271;DHT22;53180;51.344;6.152;2023-04-07T04:58:02;7.70;95.50
33271;DHT22;53180;51.344;6.152;2023-04-07T05:00:31;7.70;95.50
33271;DHT22;53180;51.344;6.152;2023-04-07T05:02:59;7.70;95.60
33271;DHT22;53180;51.344;6.152;2023-04-07T05:05:29;7.70;95.50
33271;DHT22;53180;51.344;6.152;2023-04-07T05:07:57;7.70;95.60
33271;DHT22;53180;51.344;6.152;2023-04-07T05:10:25;7.70;95.60
33271;DHT22;53180;51.344;6.152;2023-04-07T05:12:55;7.70;95.60
33271;DHT22;53180;51.344;6.152;2023-04-07T05:15:23;7.70;95.60
33271;DHT22;53180;51.344;6.152;2023-04-07T05:17:52;7.70;95.60
33271;DHT22;53180;51.344;6.152;2023-04-07T05:20:20;7.70;95.60
33271;DHT22;53180;51.344;6.152;2023-04-07T05:22:48;7.70;95.60
33271;DHT22;53180;51.344;6.152;2023-04-07T05:25:17;7.70;95.60
33271;DHT22;53180;51.344;6.152;2023-04-07T05:27:45;7.70;95.60
33271;DHT22;53180;51.344;6.152;2023-04-07T05:30:15;7.80;95.70
33271;DHT22;53180;51.344;6.152;2023-04-07T05:32:43;7.70;95.60
33271;DHT22;53180;51.344;6.152;2023-04-07T05:35:12;7.70;95.60
33271;DHT22;53180;51.344;6.152;2023-04-07T05:37:41;7.70;95.60
33271;DHT22;53180;51.344;6.152;2023-04-07T05:40:10;7.70;95.60
33271;DHT22;53180;51.344;6.152;2023-04-07T05:42:38;7.70;95.60
33271;DHT22;53180;51.344;6.152;2023-04-07T05:45:08;7.70;95.60
33271;DHT22;53180;51.344;6.152;2023-04-07T05:47:38;7.80;95.70
33271;DHT22;53180;51.344;6.152;2023-04-07T05:50:08;7.80;95.60
33271;DHT22;53180;51.344;6.152;2023-04-07T05:52:37;7.80;95.70
33271;DHT22;53180;51.344;6.152;2023-04-07T05:55:06;7.80;95.70
33271;DHT22;53180;51.344;6.152;2023-04-07T05:57:35;7.80;95.70
33271;DHT22;53180;51.344;6.152;2023-04-07T06:00:04;7.80;95.70
33271;DHT22;53180;51.344;6.152;2023-04-07T06:02:33;7.80;95.70
33271;DHT22;53180;51.344;6.152;2023-04-07T06:05:04;7.80;95.70
33271;DHT22;53180;51.344;6.152;2023-04-07T06:07:33;7.80;95.70
33271;DHT22;53180;51.344;6.152;2023-04-07T06:10:01;7.80;95.70
33271;DHT22;53180;51.344;6.152;2023-04-07T06:12:30;7.80;95.70
33271;DHT22;53180;51.344;6.152;2023-04-07T06:14:58;7.80;95.70
33271;DHT22;53180;51.344;6.152;2023-04-07T06:17:27;7.80;95.70
33271;DHT22;53180;51.344;6.152;2023-04-07T06:19:55;7.80;95.70
33271;DHT22;53180;51.344;6.152;2023-04-07T06:22:24;7.70;95.60
33271;DHT22;53180;51.344;6.152;2023-04-07T06:24:53;7.80;95.70
33271;DHT22;53180;51.344;6.152;2023-04-07T06:27:21;7.80;95.70
33271;DHT22;53180;51.344;6.152;2023-04-07T06:29:49;7.80;95.70
33271;DHT22;53180;51.344;6.152;2023-04-07T06:32:17;7.90;95.70
33271;DHT22;53180;51.344;6.152;2023-04-07T06:34:46;7.90;95.70
33271;DHT22;53180;51.344;6.152;2023-04-07T06:37:14;7.90;95.70
33271;DHT22;53180;51.344;6.152;2023-04-07T06:39:44;7.90;95.70
33271;DHT22;53180;51.344;6.152;2023-04-07T06:42:12;7.90;95.70
33271;DHT22;53180;51.344;6.152;2023-04-07T06:44:41;7.90;95.70
33271;DHT22;53180;51.344;6.152;2023-04-07T06:47:09;8.00;95.80
33271;DHT22;53180;51.344;6.152;2023-04-07T06:49:37;8.00;95.80
33271;DHT22;53180;51.344;6.152;2023-04-07T06:52:06;8.00;95.80
33271;DHT22;53180;51.344;6.152;2023-04-07T06:54:34;8.00;95.80
33271;DHT22;53180;51.344;6.152;2023-04-07T06:57:04;8.00;95.80
33271;DHT22;53180;51.344;6.152;2023-04-07T06:59:37;8.00;95.80
33271;DHT22;53180;51.344;6.152;2023-04-07T07:02:06;8.10;95.80
33271;DHT22;53180;51.344;6.152;2023-04-07T07:04:34;8.10;95.80
33271;DHT22;53180;51.344;6.152;2023-04-07T07:07:02;8.10;95.80
33271;DHT22;53180;51.344;6.152;2023-04-07T07:09:31;8.10;95.80
33271;DHT22;53180;51.344;6.152;2023-04-07T07:11:59;8.10;95.80
33271;DHT22;53180;51.344;6.152;2023-04-07T07:14:31;8.20;95.80
33271;DHT22;53180;51.344;6.152;2023-04-07T07:17:00;8.10;95.80
33271;DHT22;53180;51.344;6.152;2023-04-07T07:19:28;8.10;95.80
33271;DHT22;53180;51.344;6.152;2023-04-07T07:21:56;8.10;95.80
33271;DHT22;53180;51.344;6.152;2023-04-07T07:24:24;8.10;95.70
33271;DHT22;53180;51.344;6.152;2023-04-07T07:26:55;8.10;95.80
33271;DHT22;53180;51.344;6.152;2023-04-07T07:29:23;8.10;95.70
33271;DHT22;53180;51.344;6.152;2023-04-07T07:31:53;8.10;95.70
33271;DHT22;53180;51.344;6.152;2023-04-07T07:34:22;8.20;95.70
33271;DHT22;53180;51.344;6.152;2023-04-07T07:36:50;8.20;95.70
33271;DHT22;53180;51.344;6.152;2023-04-07T07:39:18;8.20;95.70
33271;DHT22;53180;51.344;6.152;2023-04-07T07:41:46;8.30;95.70
33271;DHT22;53180;51.344;6.152;2023-04-07T07:44:17;8.30;95.70
33271;DHT22;53180;51.344;6.152;2023-04-07T07:46:46;8.30;95.70
33271;DHT22;53180;51.344;6.152;2023-04-07T07:49:16;8.30;95.70
33271;DHT22;53180;51.344;6.152;2023-04-07T07:51:44;8.30;95.70
33271;DHT22;53180;51.344;6.152;2023-04-07T07:54:13;8.40;95.70
33271;DHT22;53180;51.344;6.152;2023-04-07T07:56:41;8.40;95.70
33271;DHT22;53180;51.344;6.152;2023-04-07T07:59:09;8.40;95.70
33271;DHT22;53180;51.344;6.152;2023-04-07T08:01:37;8.40;95.70
33271;DHT22;53180;51.344;6.152;2023-04-07T08:04:06;8.40;95.70
33271;DHT22;53180;51.344;6.152;2023-04-07T08:06:36;8.50;95.70
33271;DHT22;53180;51.344;6.152;2023-04-07T08:09:04;8.50;95.70
33271;DHT22;53180;51.344;6.152;2023-04-07T08:11:32;8.50;95.60
33271;DHT22;53180;51.344;6.152;2023-04-07T08:14:01;8.50;95.60
33271;DHT22;53180;51.344;6.152;2023-04-07T08:16:29;8.40;95.60
33271;DHT22;53180;51.344;6.152;2023-04-07T08:18:58;8.40;95.50
33271;DHT22;53180;51.344;6.152;2023-04-07T08:21:27;8.30;95.40
33271;DHT22;53180;51.344;6.152;2023-04-07T08:23:58;8.40;95.40
33271;DHT22;53180;51.344;6.152;2023-04-07T08:26:26;8.40;95.40
33271;DHT22;53180;51.344;6.152;2023-04-07T08:28:55;8.40;95.40
33271;DHT22;53180;51.344;6.152;2023-04-07T08:31:24;8.40;95.40
33271;DHT22;53180;51.344;6.152;2023-04-07T08:33:52;8.40;95.40
33271;DHT22;53180;51.344;6.152;2023-04-07T08:36:24;8.30;95.30
33271;DHT22;53180;51.344;6.152;2023-04-07T08:38:53;8.30;95.30
33271;DHT22;53180;51.344;6.152;2023-04-07T08:41:28;8.30;95.20
33271;DHT22;53180;51.344;6.152;2023-04-07T08:43:59;8.20;95.10
33271;DHT22;53180;51.344;6.152;2023-04-07T08:46:29;8.20;95.10
33271;DHT22;53180;51.344;6.152;2023-04-07T08:48:57;8.20;95.10
33271;DHT22;53180;51.344;6.152;2023-04-07T08:51:29;8.20;95.00
33271;DHT22;53180;51.344;6.152;2023-04-07T08:54:04;8.20;94.90
33271;DHT22;53180;51.344;6.152;2023-04-07T08:56:39;8.20;94.90
33271;DHT22;53180;51.344;6.152;2023-04-07T08:59:09;8.20;94.90
33271;DHT22;53180;51.344;6.152;2023-04-07T09:01:40;8.20;94.90
33271;DHT22;53180;51.344;6.152;2023-04-07T09:04:09;8.20;94.80
33271;DHT22;53180;51.344;6.152;2023-04-07T09:06:37;8.20;94.60
33271;DHT22;53180;51.344;6.152;2023-04-07T09:09:06;8.20;94.60
33271;DHT22;53180;51.344;6.152;2023-04-07T09:11:35;8.30;94.70
33271;DHT22;53180;51.344;6.152;2023-04-07T09:14:06;8.30;94.60
33271;DHT22;53180;51.344;6.152;2023-04-07T09:16:35;8.30;94.50
33271;DHT22;53180;51.344;6.152;2023-04-07T09:19:03;8.30;94.40
33271;DHT22;53180;51.344;6.152;2023-04-07T09:21:46;8.40;94.40
33271;DHT22;53180;51.344;6.152;2023-04-07T09:24:23;8.40;94.50
33271;DHT22;53180;51.344;6.152;2023-04-07T09:27:10;8.50;94.60
33271;DHT22;53180;51.344;6.152;2023-04-07T09:29:44;8.50;94.70
33271;DHT22;53180;51.344;6.152;2023-04-07T09:32:34;8.50;94.70
33271;DHT22;53180;51.344;6.152;2023-04-07T09:35:05;8.50;94.60
33271;DHT22;53180;51.344;6.152;2023-04-07T09:37:33;8.50;94.50
33271;DHT22;53180;51.344;6.152;2023-04-07T09:40:02;8.60;94.30
33271;DHT22;53180;51.344;6.152;2023-04-07T09:42:33;8.60;94.10
33271;DHT22;53180;51.344;6.152;2023-04-07T09:45:04;8.60;94.00
33271;DHT22;53180;51.344;6.152;2023-04-07T09:47:32;8.70;94.20
33271;DHT22;53180;51.344;6.152;2023-04-07T09:50:01;8.80;94.10
33271;DHT22;53180;51.344;6.152;2023-04-07T09:52:49;8.80;94.00
33271;DHT22;53180;51.344;6.152;2023-04-07T09:55:20;8.80;93.80
33271;DHT22;53180;51.344;6.152;2023-04-07T09:57:51;8.80;93.50
33271;DHT22;53180;51.344;6.152;2023-04-07T10:00:21;8.90;93.60
33271;DHT22;53180;51.344;6.152;2023-04-07T10:02:50;8.80;93.60
33271;DHT22;53180;51.344;6.152;2023-04-07T10:05:19;8.80;93.50
33271;DHT22;53180;51.344;6.152;2023-04-07T10:07:48;8.80;93.10
33271;DHT22;53180;51.344;6.152;2023-04-07T10:10:16;8.80;93.20
33271;DHT22;53180;51.344;6.152;2023-04-07T10:12:44;8.80;93.40
33271;DHT22;53180;51.344;6.152;2023-04-07T10:15:14;8.80;93.40
33271;DHT22;53180;51.344;6.152;2023-04-07T10:17:45;8.80;93.30
33271;DHT22;53180;51.344;6.152;2023-04-07T10:20:16;8.80;93.40
33271;DHT22;53180;51.344;6.152;2023-04-07T10:22:50;8.80;93.50
33271;DHT22;53180;51.344;6.152;2023-04-07T10:25:22;8.90;93.50
33271;DHT22;53180;51.344;6.152;2023-04-07T10:27:51;8.90;93.40
33271;DHT22;53180;51.344;6.152;2023-04-07T10:30:25;9.00;93.40
33271;DHT22;53180;51.344;6.152;2023-04-07T10:32:55;9.10;93.60
33271;DHT22;53180;51.344;6.152;2023-04-07T10:35:23;9.10;93.60
33271;DHT22;53180;51.344;6.152;2023-04-07T10:38:11;9.10;93.20
33271;DHT22;53180;51.344;6.152;2023-04-07T10:40:41;9.20;93.40
33271;DHT22;53180;51.344;6.152;2023-04-07T10:43:10;9.20;93.40
33271;DHT22;53180;51.344;6.152;2023-04-07T10:45:54;9.20;93.20
33271;DHT22;53180;51.344;6.152;2023-04-07T10:48:26;9.20;93.40
33271;DHT22;53180;51.344;6.152;2023-04-07T10:51:15;9.20;93.40
33271;DHT22;53180;51.344;6.152;2023-04-07T10:54:14;9.20;93.10
33271;DHT22;53180;51.344;6.152;2023-04-07T10:57:11;9.30;93.10
33271;DHT22;53180;51.344;6.152;2023-04-07T10:59:42;9.30;92.80
33271;DHT22;53180;51.344;6.152;2023-04-07T11:02:44;9.30;92.50
33271;DHT22;53180;51.344;6.152;2023-04-07T11:05:20;9.30;92.00
33271;DHT22;53180;51.344;6.152;2023-04-07T11:07:51;9.30;92.20
33271;DHT22;53180;51.344;6.152;2023-04-07T11:10:23;9.20;92.20
33271;DHT22;53180;51.344;6.152;2023-04-07T11:13:03;9.30;91.90
33271;DHT22;53180;51.344;6.152;2023-04-07T11:15:34;9.30;91.90
33271;DHT22;53180;51.344;6.152;2023-04-07T11:18:09;9.30;92.00
33271;DHT22;53180;51.344;6.152;2023-04-07T11:20:45;9.30;92.10
33271;DHT22;53180;51.344;6.152;2023-04-07T11:23:15;9.30;92.10
33271;DHT22;53180;51.344;6.152;2023-04-07T11:25:47;9.30;92.50
33271;DHT22;53180;51.344;6.152;2023-04-07T11:28:16;9.30;92.40
33271;DHT22;53180;51.344;6.152;2023-04-07T11:30:47;9.30;92.10
33271;DHT22;53180;51.344;6.152;2023-04-07T11:33:20;9.30;92.40
33271;DHT22;53180;51.344;6.152;2023-04-07T11:35:51;9.30;92.20
33271;DHT22;53180;51.344;6.152;2023-04-07T11:38:24;9.30;91.50
33271;DHT22;53180;51.344;6.152;2023-04-07T11:40:55;9.20;91.80
33271;DHT22;53180;51.344;6.152;2023-04-07T11:43:24;9.30;92.00
33271;DHT22;53180;51.344;6.152;2023-04-07T11:46:05;9.20;91.60
33271;DHT22;53180;51.344;6.152;2023-04-07T11:48:38;9.20;91.40
33271;DHT22;53180;51.344;6.152;2023-04-07T11:51:15;9.20;91.10
33271;DHT22;53180;51.344;6.152;2023-04-07T11:53:44;9.20;90.60
33271;DHT22;53180;51.344;6.152;2023-04-07T11:56:15;9.20;91.10
33271;DHT22;53180;51.344;6.152;2023-04-07T11:58:48;9.20;91.00
33271;DHT22;53180;51.344;6.152;2023-04-07T12:01:17;9.20;91.10
33271;DHT22;53180;51.344;6.152;2023-04-07T12:03:58;9.20;91.00
33271;DHT22;53180;51.344;6.152;2023-04-07T12:06:28;9.30;90.80
33271;DHT22;53180;51.344;6.152;2023-04-07T12:09:01;9.20;90.40
33271;DHT22;53180;51.344;6.152;2023-04-07T12:11:29;9.30;90.60
33271;DHT22;53180;51.344;6.152;2023-04-07T12:13:58;9.30;90.80
33271;DHT22;53180;51.344;6.152;2023-04-07T12:16:27;9.20;90.90
33271;DHT22;53180;51.344;6.152;2023-04-07T12:18:56;9.30;90.50
33271;DHT22;53180;51.344;6.152;2023-04-07T12:21:25;9.30;90.60
33271;DHT22;53180;51.344;6.152;2023-04-07T12:23:53;9.30;90.60
33271;DHT22;53180;51.344;6.152;2023-04-07T12:26:21;9.30;90.30
33271;DHT22;53180;51.344;6.152;2023-04-07T12:28:51;9.30;89.90
33271;DHT22;53180;51.344;6.152;2023-04-07T12:31:19;9.30;89.50
33271;DHT22;53180;51.344;6.152;2023-04-07T12:33:47;9.30;89.60
33271;DHT22;53180;51.344;6.152;2023-04-07T12:36:17;9.30;89.80
33271;DHT22;53180;51.344;6.152;2023-04-07T12:38:46;9.30;89.80
33271;DHT22;53180;51.344;6.152;2023-04-07T12:41:15;9.20;89.60
33271;DHT22;53180;51.344;6.152;2023-04-07T12:43:43;9.20;90.00
33271;DHT22;53180;51.344;6.152;2023-04-07T12:46:12;9.20;90.30
33271;DHT22;53180;51.344;6.152;2023-04-07T12:48:41;9.20;90.70
33271;DHT22;53180;51.344;6.152;2023-04-07T12:51:09;9.20;90.90
33271;DHT22;53180;51.344;6.152;2023-04-07T12:53:39;9.20;91.10
33271;DHT22;53180;51.344;6.152;2023-04-07T12:56:07;9.20;90.90
33271;DHT22;53180;51.344;6.152;2023-04-07T12:58:35;9.20;90.80
33271;DHT22;53180;51.344;6.152;2023-04-07T13:01:04;9.20;90.70
33271;DHT22;53180;51.344;6.152;2023-04-07T13:03:33;9.20;91.00
33271;DHT22;53180;51.344;6.152;2023-04-07T13:06:02;9.20;91.00
33271;DHT22;53180;51.344;6.152;2023-04-07T13:08:30;9.20;90.80
33271;DHT22;53180;51.344;6.152;2023-04-07T13:11:00;9.20;90.90
33271;DHT22;53180;51.344;6.152;2023-04-07T13:13:29;9.20;90.10
33271;DHT22;53180;51.344;6.152;2023-04-07T13:15:58;9.20;90.40
33271;DHT22;53180;51.344;6.152;2023-04-07T13:18:26;9.30;90.10
33271;DHT22;53180;51.344;6.152;2023-04-07T13:20:54;9.30;90.10
33271;DHT22;53180;51.344;6.152;2023-04-07T13:23:25;9.30;90.00
33271;DHT22;53180;51.344;6.152;2023-04-07T13:25:54;9.30;89.40
33271;DHT22;53180;51.344;6.152;2023-04-07T13:28:24;9.30;89.60
33271;DHT22;53180;51.344;6.152;2023-04-07T13:30:52;9.40;90.20
33271;DHT22;53180;51.344;6.152;2023-04-07T13:33:20;9.30;89.90
33271;DHT22;53180;51.344;6.152;2023-04-07T13:35:49;9.30;89.80
33271;DHT22;53180;51.344;6.152;2023-04-07T13:38:17;9.30;89.80
33271;DHT22;53180;51.344;6.152;2023-04-07T13:40:45;9.30;89.60
33271;DHT22;53180;51.344;6.152;2023-04-07T13:43:15;9.20;89.90
33271;DHT22;53180;51.344;6.152;2023-04-07T13:45:46;9.20;90.10
33271;DHT22;53180;51.344;6.152;2023-04-07T13:48:15;9.20;90.40
33271;DHT22;53180;51.344;6.152;2023-04-07T13:50:43;9.20;90.50
33271;DHT22;53180;51.344;6.152;2023-04-07T13:53:11;9.20;90.40
33271;DHT22;53180;51.344;6.152;2023-04-07T13:55:42;9.30;90.40
33271;DHT22;53180;51.344;6.152;2023-04-07T13:58:11;9.20;90.60
33271;DHT22;53180;51.344;6.152;2023-04-07T14:00:39;9.30;90.70
33271;DHT22;53180;51.344;6.152;2023-04-07T14:03:09;9.30;90.20
33271;DHT22;53180;51.344;6.152;2023-04-07T14:05:37;9.30;90.00
33271;DHT22;53180;51.344;6.152;2023-04-07T14:08:08;9.40;89.60
33271;DHT22;53180;51.344;6.152;2023-04-07T14:10:38;9.50;89.90
33271;DHT22;53180;51.344;6.152;2023-04-07T14:13:07;9.50;89.90
33271;DHT22;53180;51.344;6.152;2023-04-07T14:15:36;9.60;89.60
33271;DHT22;53180;51.344;6.152;2023-04-07T14:18:05;9.70;89.40
33271;DHT22;53180;51.344;6.152;2023-04-07T14:20:35;9.80;89.20
33271;DHT22;53180;51.344;6.152;2023-04-07T14:23:03;9.90;87.90
33271;DHT22;53180;51.344;6.152;2023-04-07T14:25:32;10.00;86.70
33271;DHT22;53180;51.344;6.152;2023-04-07T14:28:00;10.00;87.30
33271;DHT22;53180;51.344;6.152;2023-04-07T14:30:28;10.00;87.60
33271;DHT22;53180;51.344;6.152;2023-04-07T14:32:57;10.00;87.40
33271;DHT22;53180;51.344;6.152;2023-04-07T14:35:29;10.10;86.20
33271;DHT22;53180;51.344;6.152;2023-04-07T14:37:59;10.10;85.20
33271;DHT22;53180;51.344;6.152;2023-04-07T14:40:28;10.00;86.20
33271;DHT22;53180;51.344;6.152;2023-04-07T14:42:56;10.00;86.70
33271;DHT22;53180;51.344;6.152;2023-04-07T14:45:27;10.00;86.30
33271;DHT22;53180;51.344;6.152;2023-04-07T14:47:56;9.90;87.40
33271;DHT22;53180;51.344;6.152;2023-04-07T14:50:24;9.90;86.50
33271;DHT22;53180;51.344;6.152;2023-04-07T14:52:53;9.90;86.90
33271;DHT22;53180;51.344;6.152;2023-04-07T14:55:23;9.90;86.80
33271;DHT22;53180;51.344;6.152;2023-04-07T14:57:51;9.80;86.30
33271;DHT22;53180;51.344;6.152;2023-04-07T15:00:19;9.80;86.90
33271;DHT22;53180;51.344;6.152;2023-04-07T15:02:48;9.80;87.30
33271;DHT22;53180;51.344;6.152;2023-04-07T15:05:21;9.80;87.00
33271;DHT22;53180;51.344;6.152;2023-04-07T15:07:49;9.80;87.10
33271;DHT22;53180;51.344;6.152;2023-04-07T15:10:18;9.80;87.20
33271;DHT22;53180;51.344;6.152;2023-04-07T15:12:48;9.80;87.70
33271;DHT22;53180;51.344;6.152;2023-04-07T15:15:17;9.80;87.80
33271;DHT22;53180;51.344;6.152;2023-04-07T15:17:45;9.80;87.20
33271;DHT22;53180;51.344;6.152;2023-04-07T15:20:13;9.80;86.70
33271;DHT22;53180;51.344;6.152;2023-04-07T15:22:42;9.80;86.60
33271;DHT22;53180;51.344;6.152;2023-04-07T15:25:10;9.80;86.20
33271;DHT22;53180;51.344;6.152;2023-04-07T15:27:38;9.80;86.60
33271;DHT22;53180;51.344;6.152;2023-04-07T15:30:09;9.80;86.50
33271;DHT22;53180;51.344;6.152;2023-04-07T15:32:37;9.80;87.00
33271;DHT22;53180;51.344;6.152;2023-04-07T15:35:07;9.80;86.60
33271;DHT22;53180;51.344;6.152;2023-04-07T15:37:35;9.80;86.10
33271;DHT22;53180;51.344;6.152;2023-04-07T15:40:05;9.80;86.60
33271;DHT22;53180;51.344;6.152;2023-04-07T15:42:34;9.80;86.50
33271;DHT22;53180;51.344;6.152;2023-04-07T15:45:10;9.80;86.70
33271;DHT22;53180;51.344;6.152;2023-04-07T15:47:38;9.80;86.70
33271;DHT22;53180;51.344;6.152;2023-04-07T15:50:07;9.80;86.50
33271;DHT22;53180;51.344;6.152;2023-04-07T15:52:36;9.80;86.60
33271;DHT22;53180;51.344;6.152;2023-04-07T15:55:05;9.80;86.60
33271;DHT22;53180;51.344;6.152;2023-04-07T15:57:34;9.80;85.90
33271;DHT22;53180;51.344;6.152;2023-04-07T16:00:03;9.70;85.90
33271;DHT22;53180;51.344;6.152;2023-04-07T16:02:33;9.70;86.00